KMAW

Malden Regional Airport

Malden, Missouri, USA
METAR KMAW 151855Z AUTO 02012KT 10SM UP SCT019 SCT026 BKN060 01/M02 A2996 RMK AO2
Observed Flight Rules
Feb-15 @ 18:55 UTC (13 minutes ago) Visual Flight Rules
Wind Visibility Clouds Conditions
20° at 12 knots 10 miles
  • Scattered at 1,900' AGL
  • Scattered at 2,600' AGL
  • Broken at 6,000' AGL
  • Unknown precipitation
Temperatures Readings
Current 1°C / 34°F
Dewpoint -2°C / 28°F
Humidity 81%
Altimeter 29.96" Hg
Pressure 1014.52 hPa
Elevation 90
METAR KMAW 151855Z AUTO 02012KT 10SM UP SCT019 SCT026 BKN060 01/M02 A2996 RMK AO2
Observed Flight Rules
Feb-15 @ 18:55 UTC
(13 minutes ago)
VFR
Wind Visibility
20° at 12 knots 10 miles
Clouds
  • Scattered at 1,900' AGL
  • Scattered at 2,600' AGL
  • Broken at 6,000' AGL
Conditions
  • Unknown precipitation
Temperature Dewpoint
1°C / 34°F -2°C / 28°F
Humidity Altimeter Pressure
81% 29.96" Hg 1014.52 hPa